Coaling, Alabama
Current Conditions -  °F | °C
As of 11:53 PM on Monday 26 Jan 2015 (Local Time) from KTCL Reporting Station
Clear Clear  
Wind Chill: 34°   Ceiling: Unl
Heat Index: 34°   Visibility: 10mi
Dew Point: 31°   Wind: 0mph
Humidity: 89%   Direction: NA
Pressure: 30.01"   Gusts: NA
Location:  33.16°N, 87.34°W
Report Text: KTCL 270553Z AUTO 00000KT 10SM CLR 01/M01 A3001 RMK AO2 SLP161 T00111006 10078 20000 401060000 50000
Loading
Personal Weather Stations






























Interactive Weather Map New forecast layout! Learn more

10-Day Weather Forecast

Advertisements
Track Severe Weather on mobile